LDDU/DBV METAR and TAF weather

Enter ICAO airport designator
Station Type Date Time Source
LDDU METAR 2020/01/23 21:00 UTC NOAA

LDDU 232100Z 04007KT 340V070 CAVOK 09/M10 Q1028 NOSIG


Station Type Date Time Source
LDDU Decoded METAR 2020/01/23 21:00 UTC NOAA

Dubrovnik / Cilipi, Croatia (LDDU) 42-34N 018-16E 165M
Jan 23, 2020 - 04:00 PM EST / 2020.01.23 2100 UTC
Wind: from the NE (040 degrees) at 8 MPH (7 KT) (direction variable):0
Visibility: greater than 7 mile(s):0
Temperature: 48 F (9 C)
Dew Point: 14 F (-10 C)
Relative Humidity: 24%
Pressure (altimeter): 30.36 in. Hg (1028 hPa)
ob: LDDU 232100Z 04007KT 340V070 CAVOK 09/M10 Q1028 NOSIG
cycle: 21

Station Type Date Time Source
LDDU TAF 2020/01/23 18:29 UTC NOAA

TAF LDDU 231725Z 2318/2418 10007KT CAVOK TX14/2413Z TN03/2406Z
BECMG 2409/2411 15012KT

Example: see airport list